sensor_id;sensor_type;location;lat;lon;timestamp;temperature;humidity
4673;DHT22;61885;53.560;9.940;2024-03-22T00:00:22;8.30;93.90
4673;DHT22;61885;53.560;9.940;2024-03-22T00:02:22;8.40;93.80
4673;DHT22;61885;53.560;9.940;2024-03-22T00:04:26;8.30;93.40
4673;DHT22;61885;53.560;9.940;2024-03-22T00:06:27;8.40;93.60
4673;DHT22;61885;53.560;9.940;2024-03-22T00:08:29;8.30;93.50
4673;DHT22;61885;53.560;9.940;2024-03-22T00:10:30;8.40;93.40
4673;DHT22;61885;53.560;9.940;2024-03-22T00:12:31;8.40;93.60
4673;DHT22;61885;53.560;9.940;2024-03-22T00:14:32;8.30;93.70
4673;DHT22;61885;53.560;9.940;2024-03-22T00:16:34;8.40;93.40
4673;DHT22;61885;53.560;9.940;2024-03-22T00:18:35;8.40;93.60
4673;DHT22;61885;53.560;9.940;2024-03-22T00:20:38;8.50;93.20
4673;DHT22;61885;53.560;9.940;2024-03-22T00:22:39;8.40;93.30
4673;DHT22;61885;53.560;9.940;2024-03-22T00:24:41;8.40;93.20
4673;DHT22;61885;53.560;9.940;2024-03-22T00:26:42;8.50;93.20
4673;DHT22;61885;53.560;9.940;2024-03-22T00:28:44;8.50;93.10
4673;DHT22;61885;53.560;9.940;2024-03-22T00:30:45;8.50;93.20
4673;DHT22;61885;53.560;9.940;2024-03-22T00:32:47;8.50;93.00
4673;DHT22;61885;53.560;9.940;2024-03-22T00:34:48;8.60;92.70
4673;DHT22;61885;53.560;9.940;2024-03-22T00:36:51;8.50;93.00
4673;DHT22;61885;53.560;9.940;2024-03-22T00:38:52;8.60;93.10
4673;DHT22;61885;53.560;9.940;2024-03-22T00:40:54;8.60;92.90
4673;DHT22;61885;53.560;9.940;2024-03-22T00:42:54;8.70;93.00
4673;DHT22;61885;53.560;9.940;2024-03-22T00:44:56;8.60;93.10
4673;DHT22;61885;53.560;9.940;2024-03-22T00:46:58;8.60;93.10
4673;DHT22;61885;53.560;9.940;2024-03-22T00:49:00;8.60;92.90
4673;DHT22;61885;53.560;9.940;2024-03-22T00:51:01;8.60;93.00
4673;DHT22;61885;53.560;9.940;2024-03-22T00:53:04;8.50;93.00
4673;DHT22;61885;53.560;9.940;2024-03-22T00:55:07;8.60;92.80
4673;DHT22;61885;53.560;9.940;2024-03-22T00:57:09;8.50;93.20
4673;DHT22;61885;53.560;9.940;2024-03-22T00:59:10;8.60;93.00
4673;DHT22;61885;53.560;9.940;2024-03-22T01:01:14;8.50;93.00
4673;DHT22;61885;53.560;9.940;2024-03-22T01:03:15;8.60;92.80
4673;DHT22;61885;53.560;9.940;2024-03-22T01:05:17;8.60;92.80
4673;DHT22;61885;53.560;9.940;2024-03-22T01:07:18;8.60;92.70
4673;DHT22;61885;53.560;9.940;2024-03-22T01:09:22;8.60;92.60
4673;DHT22;61885;53.560;9.940;2024-03-22T01:11:24;8.60;92.80
4673;DHT22;61885;53.560;9.940;2024-03-22T01:13:25;8.60;92.60
4673;DHT22;61885;53.560;9.940;2024-03-22T01:15:27;8.60;93.10
4673;DHT22;61885;53.560;9.940;2024-03-22T01:17:28;8.50;93.20
4673;DHT22;61885;53.560;9.940;2024-03-22T01:19:30;8.50;93.20
4673;DHT22;61885;53.560;9.940;2024-03-22T01:21:31;8.60;93.40
4673;DHT22;61885;53.560;9.940;2024-03-22T01:23:32;8.50;93.20
4673;DHT22;61885;53.560;9.940;2024-03-22T01:25:35;8.50;93.10
4673;DHT22;61885;53.560;9.940;2024-03-22T01:27:37;8.60;93.00
4673;DHT22;61885;53.560;9.940;2024-03-22T01:29:38;8.70;92.80
4673;DHT22;61885;53.560;9.940;2024-03-22T01:31:39;8.50;93.00
4673;DHT22;61885;53.560;9.940;2024-03-22T01:33:41;8.60;93.10
4673;DHT22;61885;53.560;9.940;2024-03-22T01:35:42;8.50;93.10
4673;DHT22;61885;53.560;9.940;2024-03-22T01:37:44;8.50;93.20
4673;DHT22;61885;53.560;9.940;2024-03-22T01:39:45;8.50;93.30
4673;DHT22;61885;53.560;9.940;2024-03-22T01:41:49;8.50;93.10
4673;DHT22;61885;53.560;9.940;2024-03-22T01:43:50;8.60;93.30
4673;DHT22;61885;53.560;9.940;2024-03-22T01:45:51;8.50;93.40
4673;DHT22;61885;53.560;9.940;2024-03-22T01:47:52;8.50;93.10
4673;DHT22;61885;53.560;9.940;2024-03-22T01:49:55;8.50;93.30
4673;DHT22;61885;53.560;9.940;2024-03-22T01:51:57;8.60;93.20
4673;DHT22;61885;53.560;9.940;2024-03-22T01:54:01;8.60;93.00
4673;DHT22;61885;53.560;9.940;2024-03-22T01:56:04;8.70;93.10
4673;DHT22;61885;53.560;9.940;2024-03-22T01:58:08;8.60;93.20
4673;DHT22;61885;53.560;9.940;2024-03-22T02:00:11;8.60;92.90
4673;DHT22;61885;53.560;9.940;2024-03-22T02:02:13;8.70;93.20
4673;DHT22;61885;53.560;9.940;2024-03-22T02:04:13;8.70;93.10
4673;DHT22;61885;53.560;9.940;2024-03-22T02:06:16;8.80;92.90
4673;DHT22;61885;53.560;9.940;2024-03-22T02:08:16;8.80;93.00
4673;DHT22;61885;53.560;9.940;2024-03-22T02:10:18;8.80;92.90
4673;DHT22;61885;53.560;9.940;2024-03-22T02:12:19;8.70;92.90
4673;DHT22;61885;53.560;9.940;2024-03-22T02:14:23;8.70;93.10
4673;DHT22;61885;53.560;9.940;2024-03-22T02:16:24;8.70;92.90
4673;DHT22;61885;53.560;9.940;2024-03-22T02:18:26;8.80;92.90
4673;DHT22;61885;53.560;9.940;2024-03-22T02:20:26;8.80;93.10
4673;DHT22;61885;53.560;9.940;2024-03-22T02:22:28;8.80;93.10
4673;DHT22;61885;53.560;9.940;2024-03-22T02:24:31;8.90;93.20
4673;DHT22;61885;53.560;9.940;2024-03-22T02:26:33;8.80;93.00
4673;DHT22;61885;53.560;9.940;2024-03-22T02:28:35;8.80;93.10
4673;DHT22;61885;53.560;9.940;2024-03-22T02:30:37;8.80;93.40
4673;DHT22;61885;53.560;9.940;2024-03-22T02:32:38;8.80;93.40
4673;DHT22;61885;53.560;9.940;2024-03-22T02:34:40;8.80;93.80
4673;DHT22;61885;53.560;9.940;2024-03-22T02:36:41;8.80;93.70
4673;DHT22;61885;53.560;9.940;2024-03-22T02:38:42;8.80;93.50
4673;DHT22;61885;53.560;9.940;2024-03-22T02:40:45;8.80;93.50
4673;DHT22;61885;53.560;9.940;2024-03-22T02:42:48;8.80;93.40
4673;DHT22;61885;53.560;9.940;2024-03-22T02:44:49;8.90;93.40
4673;DHT22;61885;53.560;9.940;2024-03-22T02:46:50;8.90;93.40
4673;DHT22;61885;53.560;9.940;2024-03-22T02:48:51;8.90;93.30
4673;DHT22;61885;53.560;9.940;2024-03-22T02:50:55;9.00;93.20
4673;DHT22;61885;53.560;9.940;2024-03-22T02:52:56;8.90;93.50
4673;DHT22;61885;53.560;9.940;2024-03-22T02:54:58;8.90;93.60
4673;DHT22;61885;53.560;9.940;2024-03-22T02:57:01;8.90;93.60
4673;DHT22;61885;53.560;9.940;2024-03-22T02:59:04;9.00;93.50
4673;DHT22;61885;53.560;9.940;2024-03-22T03:01:05;9.00;93.30
4673;DHT22;61885;53.560;9.940;2024-03-22T03:03:07;9.00;93.30
4673;DHT22;61885;53.560;9.940;2024-03-22T03:05:10;9.00;93.50
4673;DHT22;61885;53.560;9.940;2024-03-22T03:07:12;9.00;93.30
4673;DHT22;61885;53.560;9.940;2024-03-22T03:09:13;9.00;93.60
4673;DHT22;61885;53.560;9.940;2024-03-22T03:11:15;9.00;93.50
4673;DHT22;61885;53.560;9.940;2024-03-22T03:13:18;9.00;93.60
4673;DHT22;61885;53.560;9.940;2024-03-22T03:15:20;9.10;93.50
4673;DHT22;61885;53.560;9.940;2024-03-22T03:17:20;9.00;93.20
4673;DHT22;61885;53.560;9.940;2024-03-22T03:19:23;9.10;93.30
4673;DHT22;61885;53.560;9.940;2024-03-22T03:21:24;9.00;93.50
4673;DHT22;61885;53.560;9.940;2024-03-22T03:23:26;9.10;93.60
4673;DHT22;61885;53.560;9.940;2024-03-22T03:25:27;9.10;93.40
4673;DHT22;61885;53.560;9.940;2024-03-22T03:27:29;9.00;93.70
4673;DHT22;61885;53.560;9.940;2024-03-22T03:29:32;9.10;93.70
4673;DHT22;61885;53.560;9.940;2024-03-22T03:31:35;9.10;94.00
4673;DHT22;61885;53.560;9.940;2024-03-22T03:33:37;9.10;93.90
4673;DHT22;61885;53.560;9.940;2024-03-22T03:35:39;9.10;93.90
4673;DHT22;61885;53.560;9.940;2024-03-22T03:37:40;9.10;94.00
4673;DHT22;61885;53.560;9.940;2024-03-22T03:39:41;9.10;93.90
4673;DHT22;61885;53.560;9.940;2024-03-22T03:41:42;9.10;94.00
4673;DHT22;61885;53.560;9.940;2024-03-22T03:43:45;9.10;93.90
4673;DHT22;61885;53.560;9.940;2024-03-22T03:45:47;9.10;94.00
4673;DHT22;61885;53.560;9.940;2024-03-22T03:47:49;9.10;93.80
4673;DHT22;61885;53.560;9.940;2024-03-22T03:49:50;9.10;94.00
4673;DHT22;61885;53.560;9.940;2024-03-22T03:51:54;9.10;93.80
4673;DHT22;61885;53.560;9.940;2024-03-22T03:53:55;9.10;93.80
4673;DHT22;61885;53.560;9.940;2024-03-22T03:55:57;9.10;93.90
4673;DHT22;61885;53.560;9.940;2024-03-22T03:57:59;9.20;93.80
4673;DHT22;61885;53.560;9.940;2024-03-22T04:00:01;9.10;94.00
4673;DHT22;61885;53.560;9.940;2024-03-22T04:02:03;9.20;94.00
4673;DHT22;61885;53.560;9.940;2024-03-22T04:04:05;9.10;93.80
4673;DHT22;61885;53.560;9.940;2024-03-22T04:06:06;9.20;94.00
4673;DHT22;61885;53.560;9.940;2024-03-22T04:08:10;9.20;93.90
4673;DHT22;61885;53.560;9.940;2024-03-22T04:10:11;9.20;93.70
4673;DHT22;61885;53.560;9.940;2024-03-22T04:12:13;9.20;94.00
4673;DHT22;61885;53.560;9.940;2024-03-22T04:14:14;9.20;94.00
4673;DHT22;61885;53.560;9.940;2024-03-22T04:16:16;9.20;93.80
4673;DHT22;61885;53.560;9.940;2024-03-22T04:18:19;9.20;93.70
4673;DHT22;61885;53.560;9.940;2024-03-22T04:20:21;9.20;93.70
4673;DHT22;61885;53.560;9.940;2024-03-22T04:22:22;9.30;93.60
4673;DHT22;61885;53.560;9.940;2024-03-22T04:24:24;9.30;93.50
4673;DHT22;61885;53.560;9.940;2024-03-22T04:26:25;9.40;93.20
4673;DHT22;61885;53.560;9.940;2024-03-22T04:28:27;9.30;93.60
4673;DHT22;61885;53.560;9.940;2024-03-22T04:30:28;9.30;93.60
4673;DHT22;61885;53.560;9.940;2024-03-22T04:32:30;9.30;93.60
4673;DHT22;61885;53.560;9.940;2024-03-22T04:34:33;9.20;93.70
4673;DHT22;61885;53.560;9.940;2024-03-22T04:36:34;9.40;93.50
4673;DHT22;61885;53.560;9.940;2024-03-22T04:38:35;9.30;93.60
4673;DHT22;61885;53.560;9.940;2024-03-22T04:40:37;9.30;93.50
4673;DHT22;61885;53.560;9.940;2024-03-22T04:42:38;9.40;93.90
4673;DHT22;61885;53.560;9.940;2024-03-22T04:44:40;9.20;93.70
4673;DHT22;61885;53.560;9.940;2024-03-22T04:46:41;9.30;93.70
4673;DHT22;61885;53.560;9.940;2024-03-22T04:48:45;9.30;93.80
4673;DHT22;61885;53.560;9.940;2024-03-22T04:50:48;9.40;93.70
4673;DHT22;61885;53.560;9.940;2024-03-22T04:52:50;9.30;93.60
4673;DHT22;61885;53.560;9.940;2024-03-22T04:54:51;9.40;93.70
4673;DHT22;61885;53.560;9.940;2024-03-22T04:56:53;9.40;93.70
4673;DHT22;61885;53.560;9.940;2024-03-22T04:58:54;9.30;93.90
4673;DHT22;61885;53.560;9.940;2024-03-22T05:00:57;9.40;93.90
4673;DHT22;61885;53.560;9.940;2024-03-22T05:02:59;9.40;94.00
4673;DHT22;61885;53.560;9.940;2024-03-22T05:05:01;9.30;94.00
4673;DHT22;61885;53.560;9.940;2024-03-22T05:07:04;9.30;94.00
4673;DHT22;61885;53.560;9.940;2024-03-22T05:09:05;9.40;94.00
4673;DHT22;61885;53.560;9.940;2024-03-22T05:11:07;9.30;94.10
4673;DHT22;61885;53.560;9.940;2024-03-22T05:13:09;9.40;94.10
4673;DHT22;61885;53.560;9.940;2024-03-22T05:15:10;9.40;94.00
4673;DHT22;61885;53.560;9.940;2024-03-22T05:17:11;9.40;93.80
4673;DHT22;61885;53.560;9.940;2024-03-22T05:19:12;9.40;93.90
4673;DHT22;61885;53.560;9.940;2024-03-22T05:21:14;9.40;94.00
4673;DHT22;61885;53.560;9.940;2024-03-22T05:23:16;9.40;93.70
4673;DHT22;61885;53.560;9.940;2024-03-22T05:25:18;9.50;94.00
4673;DHT22;61885;53.560;9.940;2024-03-22T05:27:20;9.40;93.90
4673;DHT22;61885;53.560;9.940;2024-03-22T05:29:21;9.40;94.00
4673;DHT22;61885;53.560;9.940;2024-03-22T05:31:22;9.50;94.00
4673;DHT22;61885;53.560;9.940;2024-03-22T05:33:24;9.50;93.90
4673;DHT22;61885;53.560;9.940;2024-03-22T05:35:25;9.50;94.10
4673;DHT22;61885;53.560;9.940;2024-03-22T05:37:27;9.40;94.40
4673;DHT22;61885;53.560;9.940;2024-03-22T05:39:30;9.40;94.50
4673;DHT22;61885;53.560;9.940;2024-03-22T05:41:32;9.40;94.40
4673;DHT22;61885;53.560;9.940;2024-03-22T05:43:33;9.50;94.40
4673;DHT22;61885;53.560;9.940;2024-03-22T05:45:35;9.60;94.00
4673;DHT22;61885;53.560;9.940;2024-03-22T05:47:37;9.60;94.20
4673;DHT22;61885;53.560;9.940;2024-03-22T05:49:38;9.60;94.00
4673;DHT22;61885;53.560;9.940;2024-03-22T05:51:40;9.60;94.00
4673;DHT22;61885;53.560;9.940;2024-03-22T05:53:41;9.60;94.20
4673;DHT22;61885;53.560;9.940;2024-03-22T05:55:45;9.50;94.20
4673;DHT22;61885;53.560;9.940;2024-03-22T05:57:46;9.60;94.30
4673;DHT22;61885;53.560;9.940;2024-03-22T05:59:47;9.40;94.80
4673;DHT22;61885;53.560;9.940;2024-03-22T06:01:49;9.60;94.80
4673;DHT22;61885;53.560;9.940;2024-03-22T06:03:51;9.60;94.60
4673;DHT22;61885;53.560;9.940;2024-03-22T06:05:52;9.50;94.80
4673;DHT22;61885;53.560;9.940;2024-03-22T06:07:59;9.50;95.20
4673;DHT22;61885;53.560;9.940;2024-03-22T06:10:00;9.70;95.20
4673;DHT22;61885;53.560;9.940;2024-03-22T06:12:05;9.60;94.80
4673;DHT22;61885;53.560;9.940;2024-03-22T06:14:07;9.70;94.50
4673;DHT22;61885;53.560;9.940;2024-03-22T06:16:09;9.80;94.50
4673;DHT22;61885;53.560;9.940;2024-03-22T06:18:10;9.80;94.60
4673;DHT22;61885;53.560;9.940;2024-03-22T06:20:12;9.80;94.70
4673;DHT22;61885;53.560;9.940;2024-03-22T06:22:13;9.80;94.50
4673;DHT22;61885;53.560;9.940;2024-03-22T06:24:15;9.80;94.50
4673;DHT22;61885;53.560;9.940;2024-03-22T06:26:17;9.80;94.60
4673;DHT22;61885;53.560;9.940;2024-03-22T06:28:20;9.80;94.70
4673;DHT22;61885;53.560;9.940;2024-03-22T06:30:21;9.80;94.80
4673;DHT22;61885;53.560;9.940;2024-03-22T06:32:23;9.80;94.70
4673;DHT22;61885;53.560;9.940;2024-03-22T06:34:25;9.90;94.90
4673;DHT22;61885;53.560;9.940;2024-03-22T06:36:27;9.90;94.80
4673;DHT22;61885;53.560;9.940;2024-03-22T06:38:28;10.00;94.30
4673;DHT22;61885;53.560;9.940;2024-03-22T06:40:32;10.00;94.50
4673;DHT22;61885;53.560;9.940;2024-03-22T06:42:32;10.00;94.40
4673;DHT22;61885;53.560;9.940;2024-03-22T06:44:36;10.00;94.30
4673;DHT22;61885;53.560;9.940;2024-03-22T06:46:37;10.10;94.00
4673;DHT22;61885;53.560;9.940;2024-03-22T06:48:39;10.10;93.90
4673;DHT22;61885;53.560;9.940;2024-03-22T06:50:40;10.00;94.20
4673;DHT22;61885;53.560;9.940;2024-03-22T06:52:41;10.00;94.20
4673;DHT22;61885;53.560;9.940;2024-03-22T06:54:42;10.10;94.30
4673;DHT22;61885;53.560;9.940;2024-03-22T06:56:44;10.10;94.10
4673;DHT22;61885;53.560;9.940;2024-03-22T06:58:45;10.10;93.90
4673;DHT22;61885;53.560;9.940;2024-03-22T07:00:48;10.10;94.10
4673;DHT22;61885;53.560;9.940;2024-03-22T07:02:49;10.30;93.90
4673;DHT22;61885;53.560;9.940;2024-03-22T07:04:51;10.20;93.90
4673;DHT22;61885;53.560;9.940;2024-03-22T07:06:52;10.30;94.00
4673;DHT22;61885;53.560;9.940;2024-03-22T07:08:54;10.20;93.80
4673;DHT22;61885;53.560;9.940;2024-03-22T07:10:56;10.30;93.90
4673;DHT22;61885;53.560;9.940;2024-03-22T07:13:02;10.30;93.80
4673;DHT22;61885;53.560;9.940;2024-03-22T07:15:03;10.30;93.90
4673;DHT22;61885;53.560;9.940;2024-03-22T07:17:07;10.40;93.70
4673;DHT22;61885;53.560;9.940;2024-03-22T07:19:07;10.40;93.80
4673;DHT22;61885;53.560;9.940;2024-03-22T07:21:09;10.20;94.20
4673;DHT22;61885;53.560;9.940;2024-03-22T07:23:10;10.20;94.30
4673;DHT22;61885;53.560;9.940;2024-03-22T07:25:12;10.40;93.90
4673;DHT22;61885;53.560;9.940;2024-03-22T07:27:13;10.20;94.20
4673;DHT22;61885;53.560;9.940;2024-03-22T07:29:15;10.30;94.30
4673;DHT22;61885;53.560;9.940;2024-03-22T07:31:17;10.30;94.00
4673;DHT22;61885;53.560;9.940;2024-03-22T07:33:20;10.40;94.10
4673;DHT22;61885;53.560;9.940;2024-03-22T07:35:21;10.40;94.10
4673;DHT22;61885;53.560;9.940;2024-03-22T07:37:25;10.50;93.90
4673;DHT22;61885;53.560;9.940;2024-03-22T07:39:26;10.30;94.20
4673;DHT22;61885;53.560;9.940;2024-03-22T07:41:28;10.30;94.10
4673;DHT22;61885;53.560;9.940;2024-03-22T07:43:29;10.40;94.10
4673;DHT22;61885;53.560;9.940;2024-03-22T07:45:31;10.50;94.00
4673;DHT22;61885;53.560;9.940;2024-03-22T07:47:32;10.50;94.00
4673;DHT22;61885;53.560;9.940;2024-03-22T07:49:36;10.50;93.80
4673;DHT22;61885;53.560;9.940;2024-03-22T07:51:37;10.50;94.10
4673;DHT22;61885;53.560;9.940;2024-03-22T07:53:39;10.50;94.20
4673;DHT22;61885;53.560;9.940;2024-03-22T07:55:40;10.40;95.00
4673;DHT22;61885;53.560;9.940;2024-03-22T07:57:42;10.30;95.50
4673;DHT22;61885;53.560;9.940;2024-03-22T07:59:43;10.20;96.40
4673;DHT22;61885;53.560;9.940;2024-03-22T08:01:44;10.20;96.40
4673;DHT22;61885;53.560;9.940;2024-03-22T08:03:47;10.20;96.60
4673;DHT22;61885;53.560;9.940;2024-03-22T08:05:49;10.20;96.50
4673;DHT22;61885;53.560;9.940;2024-03-22T08:07:51;10.20;96.30
4673;DHT22;61885;53.560;9.940;2024-03-22T08:09:52;10.20;96.80
4673;DHT22;61885;53.560;9.940;2024-03-22T08:11:56;10.40;96.50
4673;DHT22;61885;53.560;9.940;2024-03-22T08:13:57;10.30;96.90
4673;DHT22;61885;53.560;9.940;2024-03-22T08:16:03;10.20;97.20
4673;DHT22;61885;53.560;9.940;2024-03-22T08:18:04;10.30;97.40
4673;DHT22;61885;53.560;9.940;2024-03-22T08:20:07;10.30;97.90
4673;DHT22;61885;53.560;9.940;2024-03-22T08:22:09;10.30;98.40
4673;DHT22;61885;53.560;9.940;2024-03-22T08:24:11;10.30;98.40
4673;DHT22;61885;53.560;9.940;2024-03-22T08:26:12;10.30;98.50
4673;DHT22;61885;53.560;9.940;2024-03-22T08:28:14;10.30;98.40
4673;DHT22;61885;53.560;9.940;2024-03-22T08:30:15;10.30;98.30
4673;DHT22;61885;53.560;9.940;2024-03-22T08:32:17;10.40;98.30
4673;DHT22;61885;53.560;9.940;2024-03-22T08:34:18;10.30;98.50
4673;DHT22;61885;53.560;9.940;2024-03-22T08:36:21;10.20;98.40
4673;DHT22;61885;53.560;9.940;2024-03-22T08:38:24;10.20;98.70
4673;DHT22;61885;53.560;9.940;2024-03-22T08:40:26;10.20;98.70
4673;DHT22;61885;53.560;9.940;2024-03-22T08:42:27;10.10;99.20
4673;DHT22;61885;53.560;9.940;2024-03-22T08:44:29;10.10;99.40
4673;DHT22;61885;53.560;9.940;2024-03-22T08:46:30;10.20;99.60
4673;DHT22;61885;53.560;9.940;2024-03-22T08:48:32;10.20;99.70
4673;DHT22;61885;53.560;9.940;2024-03-22T08:50:34;10.20;99.60
4673;DHT22;61885;53.560;9.940;2024-03-22T08:52:36;10.20;99.60
4673;DHT22;61885;53.560;9.940;2024-03-22T08:54:38;10.30;99.80
4673;DHT22;61885;53.560;9.940;2024-03-22T08:56:40;10.30;99.80
4673;DHT22;61885;53.560;9.940;2024-03-22T08:58:41;10.20;99.90
4673;DHT22;61885;53.560;9.940;2024-03-22T09:00:43;10.20;99.90
4673;DHT22;61885;53.560;9.940;2024-03-22T09:02:44;10.20;99.90
4673;DHT22;61885;53.560;9.940;2024-03-22T09:04:46;10.20;99.90
4673;DHT22;61885;53.560;9.940;2024-03-22T09:06:47;10.10;99.90
4673;DHT22;61885;53.560;9.940;2024-03-22T09:08:49;10.10;99.90
4673;DHT22;61885;53.560;9.940;2024-03-22T09:10:51;10.20;99.90
4673;DHT22;61885;53.560;9.940;2024-03-22T09:12:53;10.10;99.90
4673;DHT22;61885;53.560;9.940;2024-03-22T09:14:54;10.10;99.90
4673;DHT22;61885;53.560;9.940;2024-03-22T09:16:56;10.10;99.90
4673;DHT22;61885;53.560;9.940;2024-03-22T09:18:56;10.10;99.90
4673;DHT22;61885;53.560;9.940;2024-03-22T09:20:58;10.10;99.90
4673;DHT22;61885;53.560;9.940;2024-03-22T09:22:59;10.10;99.90
4673;DHT22;61885;53.560;9.940;2024-03-22T09:25:01;10.20;99.90
4673;DHT22;61885;53.560;9.940;2024-03-22T09:27:04;10.20;99.90
4673;DHT22;61885;53.560;9.940;2024-03-22T09:29:09;10.10;99.90
4673;DHT22;61885;53.560;9.940;2024-03-22T09:31:10;10.20;99.90
4673;DHT22;61885;53.560;9.940;2024-03-22T09:33:11;10.20;99.90
4673;DHT22;61885;53.560;9.940;2024-03-22T09:35:12;10.20;99.90
4673;DHT22;61885;53.560;9.940;2024-03-22T09:37:15;10.20;99.90
4673;DHT22;61885;53.560;9.940;2024-03-22T09:39:15;10.30;99.80
4673;DHT22;61885;53.560;9.940;2024-03-22T09:41:23;10.20;99.90
4673;DHT22;61885;53.560;9.940;2024-03-22T09:43:27;10.20;99.80
4673;DHT22;61885;53.560;9.940;2024-03-22T09:45:30;10.10;99.60
4673;DHT22;61885;53.560;9.940;2024-03-22T09:47:32;10.20;99.90
4673;DHT22;61885;53.560;9.940;2024-03-22T09:49:33;10.20;99.90
4673;DHT22;61885;53.560;9.940;2024-03-22T09:51:36;10.20;99.90
4673;DHT22;61885;53.560;9.940;2024-03-22T09:53:38;10.20;99.90
4673;DHT22;61885;53.560;9.940;2024-03-22T09:55:41;10.20;99.90
4673;DHT22;61885;53.560;9.940;2024-03-22T09:57:45;10.20;99.90
4673;DHT22;61885;53.560;9.940;2024-03-22T09:59:49;10.10;99.90
4673;DHT22;61885;53.560;9.940;2024-03-22T10:01:51;10.10;99.90
4673;DHT22;61885;53.560;9.940;2024-03-22T10:03:54;10.10;99.90
4673;DHT22;61885;53.560;9.940;2024-03-22T10:05:55;10.10;99.90
4673;DHT22;61885;53.560;9.940;2024-03-22T10:07:57;10.10;99.90
4673;DHT22;61885;53.560;9.940;2024-03-22T10:09:58;10.00;99.90
4673;DHT22;61885;53.560;9.940;2024-03-22T10:12:00;10.10;99.90
4673;DHT22;61885;53.560;9.940;2024-03-22T10:14:01;10.00;99.90
4673;DHT22;61885;53.560;9.940;2024-03-22T10:16:05;10.10;99.90
4673;DHT22;61885;53.560;9.940;2024-03-22T10:18:06;10.00;99.90
4673;DHT22;61885;53.560;9.940;2024-03-22T10:20:13;10.00;99.90
4673;DHT22;61885;53.560;9.940;2024-03-22T10:22:16;10.00;99.90
4673;DHT22;61885;53.560;9.940;2024-03-22T10:24:21;10.00;99.90
4673;DHT22;61885;53.560;9.940;2024-03-22T10:26:22;10.00;99.90
4673;DHT22;61885;53.560;9.940;2024-03-22T10:28:24;10.00;99.90
4673;DHT22;61885;53.560;9.940;2024-03-22T10:30:25;10.00;99.90
4673;DHT22;61885;53.560;9.940;2024-03-22T10:32:29;10.00;99.90
4673;DHT22;61885;53.560;9.940;2024-03-22T10:34:30;10.00;99.90
4673;DHT22;61885;53.560;9.940;2024-03-22T10:36:33;10.00;99.90
4673;DHT22;61885;53.560;9.940;2024-03-22T10:38:38;10.00;99.90
4673;DHT22;61885;53.560;9.940;2024-03-22T10:40:40;10.00;99.90
4673;DHT22;61885;53.560;9.940;2024-03-22T10:42:42;10.00;99.90
4673;DHT22;61885;53.560;9.940;2024-03-22T10:44:45;9.90;99.90
4673;DHT22;61885;53.560;9.940;2024-03-22T10:46:47;9.90;99.90
4673;DHT22;61885;53.560;9.940;2024-03-22T10:48:50;9.90;99.90
4673;DHT22;61885;53.560;9.940;2024-03-22T10:50:53;10.00;99.90
4673;DHT22;61885;53.560;9.940;2024-03-22T10:52:59;10.00;99.90
4673;DHT22;61885;53.560;9.940;2024-03-22T10:55:01;10.00;99.90
4673;DHT22;61885;53.560;9.940;2024-03-22T10:57:05;10.00;99.90
4673;DHT22;61885;53.560;9.940;2024-03-22T10:59:07;9.90;99.90
4673;DHT22;61885;53.560;9.940;2024-03-22T11:01:22;10.00;99.90
4673;DHT22;61885;53.560;9.940;2024-03-22T11:03:24;10.00;99.90
4673;DHT22;61885;53.560;9.940;2024-03-22T11:05:28;10.00;99.90
4673;DHT22;61885;53.560;9.940;2024-03-22T11:07:29;9.90;99.90
4673;DHT22;61885;53.560;9.940;2024-03-22T11:09:31;9.80;99.90
4673;DHT22;61885;53.560;9.940;2024-03-22T11:11:32;10.00;99.90
4673;DHT22;61885;53.560;9.940;2024-03-22T11:13:39;10.00;99.90
4673;DHT22;61885;53.560;9.940;2024-03-22T11:15:40;9.90;99.90
4673;DHT22;61885;53.560;9.940;2024-03-22T11:17:42;10.00;99.90
4673;DHT22;61885;53.560;9.940;2024-03-22T11:19:43;10.00;99.90
4673;DHT22;61885;53.560;9.940;2024-03-22T11:21:46;10.00;99.90
4673;DHT22;61885;53.560;9.940;2024-03-22T11:23:47;9.90;99.90
4673;DHT22;61885;53.560;9.940;2024-03-22T11:25:49;9.90;99.90
4673;DHT22;61885;53.560;9.940;2024-03-22T11:27:50;10.00;99.90
4673;DHT22;61885;53.560;9.940;2024-03-22T11:29:52;10.10;99.90
4673;DHT22;61885;53.560;9.940;2024-03-22T11:31:55;10.00;99.90
4673;DHT22;61885;53.560;9.940;2024-03-22T11:33:56;10.20;99.90
4673;DHT22;61885;53.560;9.940;2024-03-22T11:35:58;10.20;99.90
4673;DHT22;61885;53.560;9.940;2024-03-22T11:38:01;10.20;99.90
4673;DHT22;61885;53.560;9.940;2024-03-22T11:40:02;10.20;99.90
4673;DHT22;61885;53.560;9.940;2024-03-22T11:42:07;10.20;99.90
4673;DHT22;61885;53.560;9.940;2024-03-22T11:44:09;10.20;99.90
4673;DHT22;61885;53.560;9.940;2024-03-22T11:46:11;10.20;99.90
4673;DHT22;61885;53.560;9.940;2024-03-22T11:48:12;10.30;99.90
4673;DHT22;61885;53.560;9.940;2024-03-22T11:50:15;10.30;99.90
4673;DHT22;61885;53.560;9.940;2024-03-22T11:52:16;10.40;99.90
4673;DHT22;61885;53.560;9.940;2024-03-22T11:54:21;10.40;99.90
4673;DHT22;61885;53.560;9.940;2024-03-22T11:56:22;10.50;99.90
4673;DHT22;61885;53.560;9.940;2024-03-22T11:58:26;10.40;99.90
4673;DHT22;61885;53.560;9.940;2024-03-22T12:00:28;10.40;99.90
4673;DHT22;61885;53.560;9.940;2024-03-22T12:02:31;10.40;99.90
4673;DHT22;61885;53.560;9.940;2024-03-22T12:04:32;10.60;99.80
4673;DHT22;61885;53.560;9.940;2024-03-22T12:06:34;10.60;99.60
4673;DHT22;61885;53.560;9.940;2024-03-22T12:08:35;10.60;99.20
4673;DHT22;61885;53.560;9.940;2024-03-22T12:10:40;10.50;99.20
4673;DHT22;61885;53.560;9.940;2024-03-22T12:12:41;10.50;99.10
4673;DHT22;61885;53.560;9.940;2024-03-22T12:14:43;10.50;99.50
4673;DHT22;61885;53.560;9.940;2024-03-22T12:16:44;10.50;99.60
4673;DHT22;61885;53.560;9.940;2024-03-22T12:18:46;10.40;99.40
4673;DHT22;61885;53.560;9.940;2024-03-22T12:20:46;10.30;99.90
4673;DHT22;61885;53.560;9.940;2024-03-22T12:22:48;10.30;99.90
4673;DHT22;61885;53.560;9.940;2024-03-22T12:24:49;10.20;99.90
4673;DHT22;61885;53.560;9.940;2024-03-22T12:26:52;10.20;99.90
4673;DHT22;61885;53.560;9.940;2024-03-22T12:28:54;10.30;99.90
4673;DHT22;61885;53.560;9.940;2024-03-22T12:30:56;10.10;99.90
4673;DHT22;61885;53.560;9.940;2024-03-22T12:32:57;10.20;99.90
4673;DHT22;61885;53.560;9.940;2024-03-22T12:34:59;10.20;99.90
4673;DHT22;61885;53.560;9.940;2024-03-22T12:37:01;10.10;99.90
4673;DHT22;61885;53.560;9.940;2024-03-22T12:39:03;10.20;99.90
4673;DHT22;61885;53.560;9.940;2024-03-22T12:41:04;10.20;99.90
4673;DHT22;61885;53.560;9.940;2024-03-22T12:43:09;10.20;99.90
4673;DHT22;61885;53.560;9.940;2024-03-22T12:45:10;10.10;99.90
4673;DHT22;61885;53.560;9.940;2024-03-22T12:47:12;10.10;99.90
4673;DHT22;61885;53.560;9.940;2024-03-22T12:49:13;10.00;99.90
4673;DHT22;61885;53.560;9.940;2024-03-22T12:51:15;10.00;99.90
4673;DHT22;61885;53.560;9.940;2024-03-22T12:53:16;10.00;99.90
4673;DHT22;61885;53.560;9.940;2024-03-22T12:55:18;10.00;99.90
4673;DHT22;61885;53.560;9.940;2024-03-22T12:57:19;10.10;99.90
4673;DHT22;61885;53.560;9.940;2024-03-22T12:59:22;10.10;99.90
4673;DHT22;61885;53.560;9.940;2024-03-22T13:01:22;10.10;99.90
4673;DHT22;61885;53.560;9.940;2024-03-22T13:03:23;10.00;99.90
4673;DHT22;61885;53.560;9.940;2024-03-22T13:05:26;10.00;99.90
4673;DHT22;61885;53.560;9.940;2024-03-22T13:07:28;10.10;99.90
4673;DHT22;61885;53.560;9.940;2024-03-22T13:09:29;10.10;99.90